Time;durP1;ratioP1;P1;durP2;ratioP2;P2;SDS_P1;SDS_P2;PMS_P1;PMS_P2;Temp;Humidity;BMP_temperature;BMP_pressure;BME280_temperature;BME280_humidity;BME280_pressure;Samples;Min_cycle;Max_cycle;Signal;HPM_P1;HPM_P2
2022/02/17 00:01:43;;;;;;;;;;;;;;;;;;5057144;28;20003;-41
2022/02/17 00:04:08;;;;;;;;;;;;;;;;;;5054693;28;19912;-41
2022/02/17 00:06:33;;;;;;;;;;;;;;;;;;5054094;28;19955;-45
2022/02/17 00:08:58;;;;;;;;;;;;;;;;;;5053953;28;20433;-42
2022/02/17 00:11:24;;;;;;;;;;;;;;;;;;5052878;28;19917;-43
2022/02/17 00:13:49;;;;;;;;;;;;;;;;;;5056015;28;20011;-42
2022/02/17 00:16:16;;;;;;;;;;;;;;;;;;5052732;28;20387;-43
2022/02/17 00:18:41;;;;;;;;;;;;;;;;;;5053760;28;19920;-43
2022/02/17 00:21:06;;;;;;;;;;;;;;;;;;5053270;28;19917;-46
2022/02/17 00:23:32;;;;;;;;;;;;;;;;;;5055097;28;20340;-44
2022/02/17 00:25:57;;;;;;;;;;;;;;;;;;5053842;28;19920;-44
2022/02/17 00:28:23;;;;;;;;;;;;;;;;;;5052123;28;19912;-41
2022/02/17 00:30:48;;;;;;;;;;;;;;;;;;5053792;28;19913;-42
2022/02/17 00:33:13;;;;;;;;;;;;;;;;;;5057212;28;19916;-43
2022/02/17 00:35:38;;;;;;;;;;;;;;;;;;5054504;28;19999;-42
2022/02/17 00:38:03;;;;;;;;;;;;;;;;;;5054243;28;20133;-41
2022/02/17 00:40:29;;;;;;;;;;;;;;;;;;5057601;28;19973;-42
2022/02/17 00:42:54;;;;;;;;;;;;;;;;;;5059418;28;19912;-40
2022/02/17 00:45:19;;;;;;;;;;;;;;;;;;5055865;28;20271;-42
2022/02/17 00:47:44;;;;;;;;;;;;;;;;;;5059759;28;19944;-43
2022/02/17 00:50:09;;;;;;;;;;;;;;;;;;5053610;28;20402;-42
2022/02/17 00:52:34;;;;;;;;;;;;;;;;;;5053244;28;19917;-42
2022/02/17 00:55:00;;;;;;;;;;;;;;;;;;5053766;28;19940;-44
2022/02/17 00:57:25;;;;;;;;;;;;;;;;;;5053906;28;19912;-46
2022/02/17 00:59:50;;;;;;;;;;;;;;;;;;5054095;28;19919;-45
2022/02/17 01:02:15;;;;;;;;;;;;;;;;;;5053943;28;19927;-42
2022/02/17 01:04:40;;;;;;;;;;;;;;;;;;5052821;28;19951;-42
2022/02/17 01:07:05;;;;;;;;;;;;;;;;;;5056282;28;20450;-44
2022/02/17 01:09:31;;;;;;;;;;;;;;;;;;5052351;28;19917;-42
2022/02/17 01:11:56;;;;;;;;;;;;;;;;;;5052283;28;20614;-45
2022/02/17 01:14:21;;;;;;;;;;;;;;;;;;5053565;28;19909;-43
2022/02/17 01:16:46;;;;;;;;;;;;;;;;;;5052959;28;19916;-42
2022/02/17 01:19:12;;;;;;;;;;;;;;;;;;5050835;28;20011;-40
2022/02/17 01:21:37;;;;;;;;;;;;;;;;;;5054102;28;20003;-41
2022/02/17 01:24:02;;;;;;;;;;;;;;;;;;5052876;28;19940;-43
2022/02/17 01:26:27;;;;;;;;;;;;;;;;;;5051386;28;20268;-43
2022/02/17 01:28:52;;;;;;;;;;;;;;;;;;5051504;28;19920;-42
2022/02/17 01:31:18;;;;;;;;;;;;;;;;;;5051497;28;19917;-44
2022/02/17 01:33:43;;;;;;;;;;;;;;;;;;5048389;28;20042;-42
2022/02/17 01:36:08;;;;;;;;;;;;;;;;;;5049323;28;19913;-42
2022/02/17 01:38:34;;;;;;;;;;;;;;;;;;5052507;28;20260;-42
2022/02/17 01:40:59;;;;;;;;;;;;;;;;;;5055570;28;20007;-43
2022/02/17 01:43:24;;;;;;;;;;;;;;;;;;5054180;28;20626;-43
2022/02/17 01:45:49;;;;;;;;;;;;;;;;;;5051525;28;20023;-42
2022/02/17 01:48:14;;;;;;;;;;;;;;;;;;5055529;28;19919;-42
2022/02/17 01:50:41;;;;;;;;;;;;;;;;;;5054933;28;20306;-41
2022/02/17 01:53:06;;;;;;;;;;;;;;;;;;5056816;28;19927;-41
2022/02/17 01:55:31;;;;;;;;;;;;;;;;;;5054183;28;19908;-43
2022/02/17 01:57:57;;;;;;;;;;;;;;;;;;5054001;28;20587;-41
2022/02/17 02:00:22;;;;;;;;;;;;;;;;;;5055805;28;19928;-42
2022/02/17 02:02:47;;;;;;;;;;;;;;;;;;5054565;28;20004;-43
2022/02/17 02:05:12;;;;;;;;;;;;;;;;;;5054276;28;20415;-41
2022/02/17 02:07:37;;;;;;;;;;;;;;;;;;5051736;28;19912;-41
2022/02/17 02:10:02;;;;;;;;;;;;;;;;;;5052605;28;19917;-44
2022/02/17 02:12:27;;;;;;;;;;;;;;;;;;5052465;28;20544;-41
2022/02/17 02:14:53;;;;;;;;;;;;;;;;;;5052804;28;19913;-44
2022/02/17 02:17:19;;;;;;;;;;;;;;;;;;5053839;28;20404;-42
2022/02/17 02:19:44;;;;;;;;;;;;;;;;;;5049110;28;19955;-43
2022/02/17 02:22:09;;;;;;;;;;;;;;;;;;5051940;28;19992;-43
2022/02/17 02:24:34;;;;;;;;;;;;;;;;;;5053162;28;19967;-43
2022/02/17 02:26:59;;;;;;;;;;;;;;;;;;5053224;28;19912;-41
2022/02/17 02:29:24;;;;;;;;;;;;;;;;;;5053065;28;20008;-43
2022/02/17 02:31:50;;;;;;;;;;;;;;;;;;5050267;28;20481;-44
2022/02/17 02:34:15;;;;;;;;;;;;;;;;;;5052288;28;19912;-42
2022/02/17 02:36:40;;;;;;;;;;;;;;;;;;5053229;28;19919;-41
2022/02/17 02:39:05;;;;;;;;;;;;;;;;;;5054537;28;19916;-46
2022/02/17 02:41:30;;;;;;;;;;;;;;;;;;5053437;28;20403;-42
2022/02/17 02:43:55;;;;;;;;;;;;;;;;;;5052957;28;20023;-42
2022/02/17 02:46:20;;;;;;;;;;;;;;;;;;5054159;28;19978;-41
2022/02/17 02:48:46;;;;;;;;;;;;;;;;;;5053194;28;20692;-43
2022/02/17 02:51:11;;;;;;;;;;;;;;;;;;5055683;28;20031;-43
2022/02/17 02:53:36;;;;;;;;;;;;;;;;;;5059388;28;19962;-42
2022/02/17 02:56:01;;;;;;;;;;;;;;;;;;5057348;28;20367;-43
2022/02/17 02:58:26;;;;;;;;;;;;;;;;;;5055949;28;19996;-42
2022/02/17 03:00:51;;;;;;;;;;;;;;;;;;5055822;28;20177;-44
2022/02/17 03:03:17;;;;;;;;;;;;;;;;;;5060729;28;19912;-42
2022/02/17 03:05:43;;;;;;;;;;;;;;;;;;5054583;28;20498;-44
2022/02/17 03:08:08;;;;;;;;;;;;;;;;;;5061201;28;19962;-40
2022/02/17 03:10:34;;;;;;;;;;;;;;;;;;5061147;28;19921;-43
2022/02/17 03:12:59;;;;;;;;;;;;;;;;;;5064738;28;19913;-44
2022/02/17 03:15:24;;;;;;;;;;;;;;;;;;5056393;28;19915;-42
2022/02/17 03:17:49;;;;;;;;;;;;;;;;;;5056802;28;19916;-41
2022/02/17 03:20:14;;;;;;;;;;;;;;;;;;5054881;28;19917;-41
2022/02/17 03:22:39;;;;;;;;;;;;;;;;;;5057583;28;19912;-43
2022/02/17 03:25:05;;;;;;;;;;;;;;;;;;5055671;28;19959;-42
2022/02/17 03:27:30;;;;;;;;;;;;;;;;;;5056984;28;20666;-44
2022/02/17 03:29:55;;;;;;;;;;;;;;;;;;5053459;28;19919;-42
2022/02/17 03:32:20;;;;;;;;;;;;;;;;;;5055676;28;20391;-40
2022/02/17 03:34:46;;;;;;;;;;;;;;;;;;5056017;28;19919;-40
2022/02/17 03:37:11;;;;;;;;;;;;;;;;;;5057108;28;19920;-40
2022/02/17 03:39:36;;;;;;;;;;;;;;;;;;5054418;28;19917;-42
2022/02/17 03:42:01;;;;;;;;;;;;;;;;;;5058175;28;19924;-42
2022/02/17 03:44:26;;;;;;;;;;;;;;;;;;5060425;28;19916;-47
2022/02/17 03:46:52;;;;;;;;;;;;;;;;;;5056033;28;19916;-42
2022/02/17 03:49:17;;;;;;;;;;;;;;;;;;5055137;28;19979;-43
2022/02/17 03:51:42;;;;;;;;;;;;;;;;;;5056499;28;20163;-41
2022/02/17 03:54:07;;;;;;;;;;;;;;;;;;5055748;28;19982;-41
2022/02/17 03:56:32;;;;;;;;;;;;;;;;;;5055959;28;20277;-42
2022/02/17 03:59:00;;;;;;;;;;;;;;;;;;5057080;28;19936;-43
2022/02/17 04:01:25;;;;;;;;;;;;;;;;;;5054246;28;19916;-42
2022/02/17 04:03:51;;;;;;;;;;;;;;;;;;5062299;28;19912;-42
2022/02/17 04:06:16;;;;;;;;;;;;;;;;;;5055998;28;20372;-42
2022/02/17 04:08:41;;;;;;;;;;;;;;;;;;5055236;28;19921;-46
2022/02/17 04:11:06;;;;;;;;;;;;;;;;;;5053656;28;19972;-43
2022/02/17 04:13:31;;;;;;;;;;;;;;;;;;5054993;28;19924;-42
2022/02/17 04:15:57;;;;;;;;;;;;;;;;;;5055796;28;20318;-40
2022/02/17 04:18:22;;;;;;;;;;;;;;;;;;5051493;28;19919;-41
2022/02/17 04:20:47;;;;;;;;;;;;;;;;;;5055260;28;20265;-41
2022/02/17 04:23:12;;;;;;;;;;;;;;;;;;5056920;28;19923;-45
2022/02/17 04:25:37;;;;;;;;;;;;;;;;;;5053832;28;20356;-40
2022/02/17 04:28:02;;;;;;;;;;;;;;;;;;5056046;28;20011;-41
2022/02/17 04:30:27;;;;;;;;;;;;;;;;;;5056336;28;19916;-43
2022/02/17 04:32:53;;;;;;;;;;;;;;;;;;5058431;28;20364;-45
2022/02/17 04:35:18;;;;;;;;;;;;;;;;;;5058109;28;19959;-41
2022/02/17 04:37:43;;;;;;;;;;;;;;;;;;5057455;28;19912;-43
2022/02/17 04:40:08;;;;;;;;;;;;;;;;;;5059082;28;20352;-44
2022/02/17 04:42:33;;;;;;;;;;;;;;;;;;5055999;28;20437;-44
2022/02/17 04:44:58;;;;;;;;;;;;;;;;;;5058994;28;19920;-41
2022/02/17 04:47:24;;;;;;;;;;;;;;;;;;5057355;28;19919;-42
2022/02/17 04:49:49;;;;;;;;;;;;;;;;;;5056758;28;19921;-41
2022/02/17 04:52:14;;;;;;;;;;;;;;;;;;5060241;28;20502;-41
2022/02/17 04:54:39;;;;;;;;;;;;;;;;;;5054831;28;19913;-45
2022/02/17 04:57:04;;;;;;;;;;;;;;;;;;5056122;28;19951;-40
2022/02/17 04:59:29;;;;;;;;;;;;;;;;;;5056580;28;20410;-41
2022/02/17 05:01:55;;;;;;;;;;;;;;;;;;5056438;28;19956;-41
2022/02/17 05:04:20;;;;;;;;;;;;;;;;;;5058860;28;20442;-43
2022/02/17 05:06:45;;;;;;;;;;;;;;;;;;5054912;28;19962;-43
2022/02/17 05:09:10;;;;;;;;;;;;;;;;;;5056178;28;19912;-41
2022/02/17 05:11:35;;;;;;;;;;;;;;;;;;5057290;28;20039;-41
2022/02/17 05:14:00;;;;;;;;;;;;;;;;;;5055287;28;19915;-40
2022/02/17 05:16:27;;;;;;;;;;;;;;;;;;5056604;28;19912;-42
2022/02/17 05:18:52;;;;;;;;;;;;;;;;;;5060239;28;19913;-44
2022/02/17 05:21:17;;;;;;;;;;;;;;;;;;5055236;28;19923;-41
2022/02/17 05:23:43;;;;;;;;;;;;;;;;;;5054330;28;20403;-42
2022/02/17 05:26:08;;;;;;;;;;;;;;;;;;5051716;28;20398;-42
2022/02/17 05:28:33;;;;;;;;;;;;;;;;;;5057568;28;19954;-43
2022/02/17 05:30:58;;;;;;;;;;;;;;;;;;5057189;28;20493;-43
2022/02/17 05:33:23;;;;;;;;;;;;;;;;;;5056449;28;19939;-45
2022/02/17 05:35:49;;;;;;;;;;;;;;;;;;5055079;28;19947;-43
2022/02/17 05:38:15;;;;;;;;;;;;;;;;;;5058699;28;19913;-43
2022/02/17 05:40:40;;;;;;;;;;;;;;;;;;5057585;28;19938;-42
2022/02/17 05:43:05;;;;;;;;;;;;;;;;;;5061161;28;19958;-40
2022/02/17 05:45:30;;;;;;;;;;;;;;;;;;5056502;28;19935;-42
2022/02/17 05:47:56;;;;;;;;;;;;;;;;;;5055358;28;19912;-47
2022/02/17 05:50:21;;;;;;;;;;;;;;;;;;5054402;28;19975;-41
2022/02/17 05:52:48;;;;;;;;;;;;;;;;;;5062436;28;20280;-43
2022/02/17 05:55:13;;;;;;;;;;;;;;;;;;5057558;28;20367;-44
2022/02/17 05:57:38;;;;;;;;;;;;;;;;;;5054547;28;20359;-45
2022/02/17 06:00:04;;;;;;;;;;;;;;;;;;5053839;28;19913;-41
2022/02/17 06:02:29;;;;;;;;;;;;;;;;;;5056916;28;19908;-44
2022/02/17 06:04:54;;;;;;;;;;;;;;;;;;5058422;28;20055;-46
2022/02/17 06:07:19;;;;;;;;;;;;;;;;;;5058640;28;19928;-43
2022/02/17 06:09:45;;;;;;;;;;;;;;;;;;5061696;28;20355;-45
2022/02/17 06:12:10;;;;;;;;;;;;;;;;;;5053745;28;19970;-47
2022/02/17 06:14:35;;;;;;;;;;;;;;;;;;5053342;28;19919;-45
2022/02/17 06:17:00;;;;;;;;;;;;;;;;;;5050897;28;20273;-43
2022/02/17 06:19:25;;;;;;;;;;;;;;;;;;5053557;28;19928;-43
2022/02/17 06:21:50;;;;;;;;;;;;;;;;;;5053254;28;19912;-41
2022/02/17 06:24:15;;;;;;;;;;;;;;;;;;5054539;28;19962;-40
2022/02/17 06:26:41;;;;;;;;;;;;;;;;;;5056236;28;19909;-45
2022/02/17 06:29:06;;;;;;;;;;;;;;;;;;5056489;28;20490;-42
2022/02/17 06:31:31;;;;;;;;;;;;;;;;;;5057543;28;19925;-45
2022/02/17 06:33:56;;;;;;;;;;;;;;;;;;5055525;28;19912;-43
2022/02/17 06:36:21;;;;;;;;;;;;;;;;;;5062431;28;20076;-41
2022/02/17 06:38:47;;;;;;;;;;;;;;;;;;5058418;28;19916;-43
2022/02/17 06:41:13;;;;;;;;;;;;;;;;;;5057566;28;20217;-44
2022/02/17 06:43:38;;;;;;;;;;;;;;;;;;5055675;28;19916;-42
2022/02/17 06:46:03;;;;;;;;;;;;;;;;;;5055318;28;19958;-42
2022/02/17 06:48:28;;;;;;;;;;;;;;;;;;5053466;28;19919;-45
2022/02/17 06:50:53;;;;;;;;;;;;;;;;;;5058891;28;20352;-42
2022/02/17 06:53:18;;;;;;;;;;;;;;;;;;5059545;28;19955;-44
2022/02/17 06:55:45;;;;;;;;;;;;;;;;;;5053829;28;19999;-40
2022/02/17 06:58:10;;;;;;;;;;;;;;;;;;5056572;28;19916;-41
2022/02/17 07:00:35;;;;;;;;;;;;;;;;;;5058609;28;19916;-45
2022/02/17 07:03:04;;;;;;;;;;;;;;;;;;5054518;28;20516;-42
2022/02/17 07:05:29;;;;;;;;;;;;;;;;;;5055734;28;20372;-43
2022/02/17 07:07:54;;;;;;;;;;;;;;;;;;5053613;28;19919;-43
2022/02/17 07:10:54;;;;;;;;;;;;;;;;;;5057115;28;20253;-41
2022/02/17 07:13:04;;;;;;;;;;;;;;;;;;5059590;28;19913;-42
2022/02/17 07:15:30;;;;;;;;;;;;;;;;;;5056270;28;20252;-46
2022/02/17 07:17:55;;;;;;;;;;;;;;;;;;5057863;28;19913;-42
2022/02/17 07:20:20;;;;;;;;;;;;;;;;;;5058267;28;19963;-44
2022/02/17 07:22:45;;;;;;;;;;;;;;;;;;5058455;28;20291;-62
2022/02/17 07:25:10;;;;;;;;;;;;;;;;;;5056392;28;19908;-62
2022/02/17 07:27:36;;;;;;;;;;;;;;;;;;5058662;28;20283;-62
2022/02/17 07:30:01;;;;;;;;;;;;;;;;;;5057405;28;19963;-62
2022/02/17 07:32:26;;;;;;;;;;;;;;;;;;5056626;28;20359;-62
2022/02/17 07:34:51;;;;;;;;;;;;;;;;;;5055989;28;19999;-61
2022/02/17 07:37:16;;;;;;;;;;;;;;;;;;5056183;28;19974;-62
2022/02/17 07:39:42;;;;;;;;;;;;;;;;;;5056230;28;19931;-62
2022/02/17 07:42:07;;;;;;;;;;;;;;;;;;5058714;28;19943;-62
2022/02/17 07:44:33;;;;;;;;;;;;;;;;;;5055153;28;19913;-62
2022/02/17 07:46:58;;;;;;;;;;;;;;;;;;5058414;28;19931;-62
2022/02/17 07:49:23;;;;;;;;;;;;;;;;;;5057316;28;19931;-62
2022/02/17 07:51:48;;;;;;;;;;;;;;;;;;5055503;28;19923;-61
2022/02/17 07:54:13;;;;;;;;;;;;;;;;;;5061058;28;20380;-61
2022/02/17 07:56:38;;;;;;;;;;;;;;;;;;5057366;28;19924;-60
2022/02/17 07:59:04;;;;;;;;;;;;;;;;;;5055493;28;20536;-60
2022/02/17 08:01:29;;;;;;;;;;;;;;;;;;5055821;28;19959;-60
2022/02/17 08:03:54;;;;;;;;;;;;;;;;;;5054547;28;19955;-60
2022/02/17 08:06:19;;;;;;;;;;;;;;;;;;5057778;28;19959;-61
2022/02/17 08:08:48;;;;;;;;;;;;;;;;;;5054045;28;20411;-61
2022/02/17 08:11:13;;;;;;;;;;;;;;;;;;5050149;28;20518;-61
2022/02/17 08:13:38;;;;;;;;;;;;;;;;;;5054745;28;20057;-61
2022/02/17 08:16:03;;;;;;;;;;;;;;;;;;5054353;28;19944;-61
2022/02/17 08:18:29;;;;;;;;;;;;;;;;;;5053247;28;19909;-61
2022/02/17 08:20:54;;;;;;;;;;;;;;;;;;5051345;28;19913;-61
2022/02/17 08:23:19;;;;;;;;;;;;;;;;;;5055448;28;20535;-61
2022/02/17 08:25:45;;;;;;;;;;;;;;;;;;5054395;28;20426;-61
2022/02/17 08:28:10;;;;;;;;;;;;;;;;;;5059692;28;19992;-61
2022/02/17 08:30:38;;;;;;;;;;;;;;;;;;5053781;28;19975;-61
2022/02/17 08:33:03;;;;;;;;;;;;;;;;;;5055979;28;19912;-61
2022/02/17 08:35:29;;;;;;;;;;;;;;;;;;5049210;28;19919;-61
2022/02/17 08:37:56;;;;;;;;;;;;;;;;;;5052613;28;19917;-62
2022/02/17 08:40:21;;;;;;;;;;;;;;;;;;5052829;28;20030;-60
2022/02/17 08:42:46;;;;;;;;;;;;;;;;;;5057295;28;19921;-63
2022/02/17 08:45:12;;;;;;;;;;;;;;;;;;5053736;28;19978;-62
2022/02/17 08:47:37;;;;;;;;;;;;;;;;;;5058989;28;19917;-62
2022/02/17 08:50:03;;;;;;;;;;;;;;;;;;5055325;28;19974;-62
2022/02/17 08:52:28;;;;;;;;;;;;;;;;;;5061746;28;20380;-62
2022/02/17 08:54:53;;;;;;;;;;;;;;;;;;5053748;28;19921;-62
2022/02/17 08:57:18;;;;;;;;;;;;;;;;;;5053701;28;19912;-61
2022/02/17 08:59:43;;;;;;;;;;;;;;;;;;5054014;28;19965;-62
2022/02/17 09:02:08;;;;;;;;;;;;;;;;;;5053572;28;20000;-61
2022/02/17 09:04:34;;;;;;;;;;;;;;;;;;5055192;28;20135;-62
2022/02/17 09:06:59;;;;;;;;;;;;;;;;;;5056622;28;19978;-62
2022/02/17 09:09:24;;;;;;;;;;;;;;;;;;5057805;28;19912;-62
2022/02/17 09:11:49;;;;;;;;;;;;;;;;;;5053285;28;20386;-62
2022/02/17 09:14:14;;;;;;;;;;;;;;;;;;5050917;28;19916;-62
2022/02/17 09:16:40;;;;;;;;;;;;;;;;;;5051535;28;20252;-62
2022/02/17 09:19:05;;;;;;;;;;;;;;;;;;5052139;28;19925;-62
2022/02/17 09:21:30;;;;;;;;;;;;;;;;;;5054009;28;19912;-63
2022/02/17 09:23:55;;;;;;;;;;;;;;;;;;5054524;28;19917;-62
2022/02/17 09:26:21;;;;;;;;;;;;;;;;;;5052705;28;20016;-62
2022/02/17 09:28:49;;;;;;;;;;;;;;;;;;5051939;28;20292;-62
2022/02/17 09:31:18;;;;;;;;;;;;;;;;;;5052832;28;19960;-62
2022/02/17 09:33:43;;;;;;;;;;;;;;;;;;5052846;28;20116;-63
2022/02/17 09:36:09;;;;;;;;;;;;;;;;;;5052443;28;20383;-63
2022/02/17 09:38:34;;;;;;;;;;;;;;;;;;5054439;28;19919;-62
2022/02/17 09:40:59;;;;;;;;;;;;;;;;;;5052755;28;19916;-62
2022/02/17 09:43:25;;;;;;;;;;;;;;;;;;5056587;28;20520;-62
2022/02/17 09:45:51;;;;;;;;;;;;;;;;;;5052373;28;19912;-62
2022/02/17 09:48:17;;;;;;;;;;;;;;;;;;5048886;28;19919;-63
2022/02/17 09:50:42;;;;;;;;;;;;;;;;;;5054690;28;19951;-63
2022/02/17 09:53:07;;;;;;;;;;;;;;;;;;5053563;28;20297;-62
2022/02/17 09:55:32;;;;;;;;;;;;;;;;;;5050923;28;19959;-63
2022/02/17 09:57:58;;;;;;;;;;;;;;;;;;5053596;28;20031;-63
2022/02/17 10:00:23;;;;;;;;;;;;;;;;;;5053681;28;19912;-63
2022/02/17 10:02:48;;;;;;;;;;;;;;;;;;5053017;28;20039;-63
2022/02/17 10:05:15;;;;;;;;;;;;;;;;;;5048992;28;20402;-63
2022/02/17 10:07:40;;;;;;;;;;;;;;;;;;5060778;28;19909;-63
2022/02/17 10:10:05;;;;;;;;;;;;;;;;;;5052491;28;19913;-62
2022/02/17 10:12:30;;;;;;;;;;;;;;;;;;5052724;28;19916;-62
2022/02/17 10:14:55;;;;;;;;;;;;;;;;;;5055575;28;19924;-61
2022/02/17 10:17:21;;;;;;;;;;;;;;;;;;5073284;28;20360;-62
2022/02/17 10:19:50;;;;;;;;;;;;;;;;;;5055630;28;19916;-62
2022/02/17 10:22:15;;;;;;;;;;;;;;;;;;5061408;28;20376;-62
2022/02/17 10:24:40;;;;;;;;;;;;;;;;;;5055482;28;19923;-62
2022/02/17 10:27:06;;;;;;;;;;;;;;;;;;5058271;28;19917;-63
2022/02/17 10:29:31;;;;;;;;;;;;;;;;;;5058134;28;19928;-63
2022/02/17 10:31:56;;;;;;;;;;;;;;;;;;5057338;28;19917;-62
2022/02/17 10:34:21;;;;;;;;;;;;;;;;;;5056586;28;19909;-62
2022/02/17 10:36:47;;;;;;;;;;;;;;;;;;5052365;28;19928;-63
2022/02/17 10:39:12;;;;;;;;;;;;;;;;;;5052329;28;19913;-63
2022/02/17 10:41:38;;;;;;;;;;;;;;;;;;5051473;28;19920;-63
2022/02/17 10:44:03;;;;;;;;;;;;;;;;;;5053198;28;20642;-63
2022/02/17 10:46:28;;;;;;;;;;;;;;;;;;5051905;28;19975;-63
2022/02/17 10:48:53;;;;;;;;;;;;;;;;;;5058672;28;20449;-64
2022/02/17 10:51:19;;;;;;;;;;;;;;;;;;5058923;28;20023;-65
2022/02/17 10:53:45;;;;;;;;;;;;;;;;;;5052136;28;19919;-65
2022/02/17 10:56:10;;;;;;;;;;;;;;;;;;5052626;28;19912;-65
2022/02/17 10:58:37;;;;;;;;;;;;;;;;;;5058427;28;20716;-65
2022/02/17 11:01:02;;;;;;;;;;;;;;;;;;5053709;28;19920;-64
2022/02/17 11:03:27;;;;;;;;;;;;;;;;;;5053966;28;19916;-64
2022/02/17 11:05:53;;;;;;;;;;;;;;;;;;5051679;28;19963;-64
2022/02/17 11:08:18;;;;;;;;;;;;;;;;;;5058501;28;19913;-65
2022/02/17 11:10:43;;;;;;;;;;;;;;;;;;5052926;28;19924;-66
2022/02/17 11:13:11;;;;;;;;;;;;;;;;;;5055831;28;20007;-65
2022/02/17 11:15:37;;;;;;;;;;;;;;;;;;5063080;28;19913;-65
2022/02/17 11:18:03;;;;;;;;;;;;;;;;;;5057897;28;19956;-65
2022/02/17 11:20:28;;;;;;;;;;;;;;;;;;5057750;28;19912;-65
2022/02/17 11:22:53;;;;;;;;;;;;;;;;;;5053154;28;19912;-66
2022/02/17 11:25:19;;;;;;;;;;;;;;;;;;5053372;28;20343;-66
2022/02/17 11:27:44;;;;;;;;;;;;;;;;;;5059176;28;19912;-66
2022/02/17 11:30:09;;;;;;;;;;;;;;;;;;5054899;28;19913;-65
2022/02/17 11:32:34;;;;;;;;;;;;;;;;;;5055515;28;19968;-66
2022/02/17 11:35:00;;;;;;;;;;;;;;;;;;5057382;28;19959;-66
2022/02/17 11:37:28;;;;;;;;;;;;;;;;;;5054030;28;20756;-65
2022/02/17 11:39:53;;;;;;;;;;;;;;;;;;5054676;28;19920;-60
2022/02/17 11:42:18;;;;;;;;;;;;;;;;;;5054407;28;19916;-56
2022/02/17 11:44:43;;;;;;;;;;;;;;;;;;5052563;28;19917;-59
2022/02/17 11:47:08;;;;;;;;;;;;;;;;;;5058183;28;19909;-59
2022/02/17 11:49:34;;;;;;;;;;;;;;;;;;5062928;28;19960;-59
2022/02/17 11:51:59;;;;;;;;;;;;;;;;;;5059571;28;20418;-59
2022/02/17 11:54:24;;;;;;;;;;;;;;;;;;5054638;28;19956;-59
2022/02/17 11:56:50;;;;;;;;;;;;;;;;;;5057558;28;20217;-59
2022/02/17 11:59:15;;;;;;;;;;;;;;;;;;5056442;28;19984;-59
2022/02/17 12:01:40;;;;;;;;;;;;;;;;;;5057273;28;20012;-59
2022/02/17 12:04:06;;;;;;;;;;;;;;;;;;5054982;28;19909;-59
2022/02/17 12:06:32;;;;;;;;;;;;;;;;;;5057596;28;20383;-59
2022/02/17 12:08:57;;;;;;;;;;;;;;;;;;5055578;28;19996;-59
2022/02/17 12:11:22;;;;;;;;;;;;;;;;;;5059144;28;19917;-59
2022/02/17 12:13:47;;;;;;;;;;;;;;;;;;5058230;28;20460;-59
2022/02/17 12:16:12;;;;;;;;;;;;;;;;;;5054265;28;19915;-59
2022/02/17 12:18:38;;;;;;;;;;;;;;;;;;5057095;28;19913;-59
2022/02/17 12:21:03;;;;;;;;;;;;;;;;;;5057589;28;19980;-59
2022/02/17 12:23:28;;;;;;;;;;;;;;;;;;5059370;28;20360;-59
2022/02/17 12:25:54;;;;;;;;;;;;;;;;;;5055075;28;20000;-59
2022/02/17 12:28:19;;;;;;;;;;;;;;;;;;5058951;28;19967;-59
2022/02/17 12:30:49;;;;;;;;;;;;;;;;;;5057023;28;20671;-59
2022/02/17 12:33:14;;;;;;;;;;;;;;;;;;5056665;28;19917;-59
2022/02/17 12:35:39;;;;;;;;;;;;;;;;;;5055002;28;20317;-59
2022/02/17 12:38:05;;;;;;;;;;;;;;;;;;5054362;28;19924;-59
2022/02/17 12:40:30;;;;;;;;;;;;;;;;;;5057884;28;19949;-59
2022/02/17 12:42:55;;;;;;;;;;;;;;;;;;5056932;28;19912;-60
2022/02/17 12:45:20;;;;;;;;;;;;;;;;;;5055924;28;19908;-59
2022/02/17 12:47:46;;;;;;;;;;;;;;;;;;5055383;28;20015;-60
2022/02/17 12:50:12;;;;;;;;;;;;;;;;;;5057941;28;19942;-59
2022/02/17 12:52:37;;;;;;;;;;;;;;;;;;5059123;28;19916;-60
2022/02/17 12:55:07;;;;;;;;;;;;;;;;;;5057592;28;19912;-59
2022/02/17 12:57:32;;;;;;;;;;;;;;;;;;5055201;28;20031;-60
2022/02/17 12:59:58;;;;;;;;;;;;;;;;;;5056562;28;20025;-60
2022/02/17 13:02:23;;;;;;;;;;;;;;;;;;5052671;28;19913;-60
2022/02/17 13:04:48;;;;;;;;;;;;;;;;;;5057173;28;20376;-60
2022/02/17 13:07:13;;;;;;;;;;;;;;;;;;5054923;28;20364;-59
2022/02/17 13:09:38;;;;;;;;;;;;;;;;;;5058326;28;19959;-59
2022/02/17 13:12:04;;;;;;;;;;;;;;;;;;5058829;28;19920;-60
2022/02/17 13:14:30;;;;;;;;;;;;;;;;;;5054223;28;20017;-59
2022/02/17 13:16:55;;;;;;;;;;;;;;;;;;5054409;28;19909;-58
2022/02/17 13:19:21;;;;;;;;;;;;;;;;;;5058964;28;19919;-55
2022/02/17 13:21:46;;;;;;;;;;;;;;;;;;5056102;28;19912;-55
2022/02/17 13:24:11;;;;;;;;;;;;;;;;;;5055428;28;19909;-53
2022/02/17 13:26:36;;;;;;;;;;;;;;;;;;5054565;28;19940;-53
2022/02/17 13:29:01;;;;;;;;;;;;;;;;;;5053465;28;19916;-53
2022/02/17 13:31:27;;;;;;;;;;;;;;;;;;5056969;28;19920;-56
2022/02/17 13:33:52;;;;;;;;;;;;;;;;;;5053293;28;20371;-52
2022/02/17 13:36:17;;;;;;;;;;;;;;;;;;5056115;28;19970;-51
2022/02/17 13:38:42;;;;;;;;;;;;;;;;;;5052967;28;19913;-54
2022/02/17 13:41:07;;;;;;;;;;;;;;;;;;5054381;28;19951;-50
2022/02/17 13:43:35;;;;;;;;;;;;;;;;;;5055025;28;19986;-53
2022/02/17 13:46:00;;;;;;;;;;;;;;;;;;5054863;28;20027;-50
2022/02/17 13:48:25;;;;;;;;;;;;;;;;;;5055422;28;20018;-53
2022/02/17 13:50:50;;;;;;;;;;;;;;;;;;5058169;28;19928;-52
2022/02/17 13:53:19;;;;;;;;;;;;;;;;;;5055761;28;20361;-50
2022/02/17 13:55:44;;;;;;;;;;;;;;;;;;5054836;28;20013;-52
2022/02/17 13:58:11;;;;;;;;;;;;;;;;;;5056924;28;19909;-53
2022/02/17 14:00:37;;;;;;;;;;;;;;;;;;5055883;28;20049;-52
2022/02/17 14:03:02;;;;;;;;;;;;;;;;;;5053599;28;19912;-53
2022/02/17 14:05:28;;;;;;;;;;;;;;;;;;5054683;28;19912;-51
2022/02/17 14:07:53;;;;;;;;;;;;;;;;;;5056788;28;19915;-50
2022/02/17 14:10:18;;;;;;;;;;;;;;;;;;5056458;28;19956;-51
2022/02/17 14:12:43;;;;;;;;;;;;;;;;;;5057232;28;20411;-48
2022/02/17 14:15:08;;;;;;;;;;;;;;;;;;5054045;28;19984;-51
2022/02/17 14:17:33;;;;;;;;;;;;;;;;;;5052727;28;19920;-46
2022/02/17 14:19:59;;;;;;;;;;;;;;;;;;5055464;28;20020;-51
2022/02/17 14:22:25;;;;;;;;;;;;;;;;;;5053589;28;19963;-49
2022/02/17 14:24:51;;;;;;;;;;;;;;;;;;5053183;28;19912;-49
2022/02/17 14:27:16;;;;;;;;;;;;;;;;;;5054513;28;19937;-50
2022/02/17 14:29:41;;;;;;;;;;;;;;;;;;5055906;28;19909;-46
2022/02/17 14:32:07;;;;;;;;;;;;;;;;;;5055639;28;19928;-50
2022/02/17 14:34:32;;;;;;;;;;;;;;;;;;5060506;28;19944;-47
2022/02/17 14:36:57;;;;;;;;;;;;;;;;;;5054836;28;20283;-49
2022/02/17 14:39:24;;;;;;;;;;;;;;;;;;5054263;28;19916;-48
2022/02/17 14:41:49;;;;;;;;;;;;;;;;;;5059255;28;20337;-49
2022/02/17 14:44:15;;;;;;;;;;;;;;;;;;5056292;28;19913;-49
2022/02/17 14:46:40;;;;;;;;;;;;;;;;;;5058252;28;20128;-50
2022/02/17 14:49:05;;;;;;;;;;;;;;;;;;5059425;28;19925;-52
2022/02/17 14:51:32;;;;;;;;;;;;;;;;;;5058799;28;20124;-47
2022/02/17 14:53:57;;;;;;;;;;;;;;;;;;5057790;28;19913;-51
2022/02/17 14:56:22;;;;;;;;;;;;;;;;;;5060994;28;20413;-52
2022/02/17 14:58:47;;;;;;;;;;;;;;;;;;5056105;28;19986;-50
2022/02/17 15:01:12;;;;;;;;;;;;;;;;;;5058095;28;19927;-52
2022/02/17 15:03:38;;;;;;;;;;;;;;;;;;5059481;28;20371;-51
2022/02/17 15:06:03;;;;;;;;;;;;;;;;;;5058568;28;19955;-52
2022/02/17 15:08:28;;;;;;;;;;;;;;;;;;5055982;28;20562;-53
2022/02/17 15:10:54;;;;;;;;;;;;;;;;;;5057057;28;20019;-51
2022/02/17 15:13:19;;;;;;;;;;;;;;;;;;5056426;28;20051;-52
2022/02/17 15:15:44;;;;;;;;;;;;;;;;;;5060629;28;20010;-53
2022/02/17 15:18:09;;;;;;;;;;;;;;;;;;5059885;28;20301;-53
2022/02/17 15:20:35;;;;;;;;;;;;;;;;;;5058734;28;19913;-53
2022/02/17 15:23:02;;;;;;;;;;;;;;;;;;5057279;28;19955;-49
2022/02/17 15:25:27;;;;;;;;;;;;;;;;;;5059416;28;19912;-51
2022/02/17 15:27:52;;;;;;;;;;;;;;;;;;5057977;28;20756;-55
2022/02/17 15:30:17;;;;;;;;;;;;;;;;;;5058715;28;19968;-53
2022/02/17 15:32:43;;;;;;;;;;;;;;;;;;5057402;28;20395;-51
2022/02/17 15:35:08;;;;;;;;;;;;;;;;;;5056412;28;19917;-53
2022/02/17 15:37:33;;;;;;;;;;;;;;;;;;5056253;28;19987;-54
2022/02/17 15:40:01;;;;;;;;;;;;;;;;;;5056203;28;19912;-51
2022/02/17 15:42:26;;;;;;;;;;;;;;;;;;5054287;28;20000;-54
2022/02/17 15:44:51;;;;;;;;;;;;;;;;;;5058294;28;20364;-53
2022/02/17 15:47:16;;;;;;;;;;;;;;;;;;5061059;28;19919;-53
2022/02/17 15:49:42;;;;;;;;;;;;;;;;;;5059109;28;19927;-52
2022/02/17 15:52:07;;;;;;;;;;;;;;;;;;5060048;28;19963;-55
2022/02/17 15:54:34;;;;;;;;;;;;;;;;;;5059114;28;19908;-55
2022/02/17 15:56:59;;;;;;;;;;;;;;;;;;5058259;28;20184;-54
2022/02/17 15:59:24;;;;;;;;;;;;;;;;;;5056957;28;20386;-55
2022/02/17 16:01:49;;;;;;;;;;;;;;;;;;5056781;28;19916;-49
2022/02/17 16:04:14;;;;;;;;;;;;;;;;;;5060170;28;19944;-50
2022/02/17 16:06:41;;;;;;;;;;;;;;;;;;5057694;28;20379;-53
2022/02/17 16:09:07;;;;;;;;;;;;;;;;;;5054249;28;19959;-49
2022/02/17 16:11:32;;;;;;;;;;;;;;;;;;5056987;28;19920;-51
2022/02/17 16:13:57;;;;;;;;;;;;;;;;;;5056195;28;19913;-46
2022/02/17 16:16:22;;;;;;;;;;;;;;;;;;5056890;28;19913;-45
2022/02/17 16:18:47;;;;;;;;;;;;;;;;;;5058692;28;19942;-48
2022/02/17 16:21:13;;;;;;;;;;;;;;;;;;5058607;28;19936;-47
2022/02/17 16:23:39;;;;;;;;;;;;;;;;;;5055002;28;19967;-47
2022/02/17 16:26:04;;;;;;;;;;;;;;;;;;5056166;28;19912;-47
2022/02/17 16:28:29;;;;;;;;;;;;;;;;;;5058756;28;19936;-49
2022/02/17 16:30:54;;;;;;;;;;;;;;;;;;5059125;28;19916;-46
2022/02/17 16:33:22;;;;;;;;;;;;;;;;;;5057818;28;20327;-47